• Join FlightAware (Why Join?)
  • Login
  • US Flag 
08:35AM EST


 

Airport Tracker/Info


-or-


 

Live Flight TrackerFlight Track Log ✈ N3281S ✈ 16-Sep-2013 ✈ 3OH0 - KSIV

Flight Track Log - Related Links

Times and Time Zones

All times are in EDT time to prevent confusion due to time zone crossing. See the N3281S flight status page for this flight to view local times or setup timezone preferences in your user account.

Time Position Orientation Groundspeed Altitude Reporting Facility
EDT Latitude Longitude Course Direction KTS MPH feet Rate Location/Type
09:08AM 39.9200 -84.0108 210° Southwest 96 110 2,000  Level Indianapolis Center
09:10AM 39.8881 -84.0353 210° Southwest 101 116 3,600 720 Climbing Indianapolis Center
09:11AM 39.8686 -84.0397 190° South 104 120 4,100 600 Climbing Indianapolis Center
09:11AM 39.8639 -84.0444 218° Southwest 100 115 4,200 180 Climbing Indianapolis Center
09:12AM 39.8550 -84.0786 251° West 126 145 4,300  Climbing Indianapolis Center
09:12AM 39.8486 -84.1100 255° West 143 165 4,200 -120 Descending Indianapolis Center
09:13AM 39.8428 -84.1383 255° West 136 157 4,200  Level Indianapolis Center
09:13AM 39.8378 -84.1519 244° Southwest 141 162 4,200  Level Indianapolis Center
09:14AM 39.8269 -84.1847 247° West 139 160 4,200 -120 Level Indianapolis Center
09:14AM 39.8194 -84.2058 245° Southwest 143 165 4,100 -120 Descending Indianapolis Center
09:15AM 39.8078 -84.2303 238° Southwest 141 162 4,100  Level Indianapolis Center
09:15AM 39.7981 -84.2486 235° Southwest 142 163 4,100 60 Level Indianapolis Center
09:16AM 39.7886 -84.2742 244° Southwest 141 162 4,200 120 Climbing Indianapolis Center
09:16AM 39.7861 -84.2819 247° West 140 161 4,200  Level Indianapolis Center
09:17AM 39.7706 -84.3169 240° Southwest 139 160 4,200  Level Indianapolis Center
09:18AM 39.7303 -84.3508 213° Southwest 137 158 4,300 60 Climbing Indianapolis Center
09:18AM 39.7367 -84.3444 38° Northeast 145 167 4,300 60 Level Indianapolis Center
09:19AM 39.7117 -84.3883 233° Southwest 143 165 4,400 60 Climbing Indianapolis Center
09:19AM 39.7108 -84.3878 153° Southeast 140 161 4,400 -120 Level Indianapolis Center
09:20AM 39.7075 -84.4450 266° West 148 170 4,300 -120 Descending Indianapolis Center
09:21AM 39.7017 -84.4983 262° West 147 169 4,200 -60 Descending Indianapolis Center
09:22AM 39.6986 -84.5458 265° West 147 169 4,200 -120 Level Indianapolis Center
09:22AM 39.6961 -84.5492 226° Southwest 146 168 4,100 -120 Descending Indianapolis Center
09:23AM 39.6908 -84.5972 262° West 153 176 4,100  Level Indianapolis Center
09:23AM 39.6886 -84.5967 169° South 146 168 4,100  Level Indianapolis Center
09:24AM 39.6906 -84.6572 272° West 145 167 4,100 -120 Level Indianapolis Center
09:24AM 39.6869 -84.6483 118° Southeast 145 167 4,000  Descending Indianapolis Center
09:25AM 39.6869 -84.7108 270° West 146 168 4,100 60 Climbing Indianapolis Center
09:25AM 39.6886 -84.7114 346° North 145 167 4,100 60 Level Indianapolis Center
09:26AM 39.6833 -84.7631 262° West 145 167 4,200 60 Climbing Indianapolis Center
09:27AM 39.6733 -84.8119 255° West 142 163 4,300 60 Climbing Indianapolis Center
09:27AM 39.6756 -84.8131 339° North 142 163 4,300  Level Indianapolis Center
09:28AM 39.6592 -84.8639 247° West 147 169 4,300  Level Indianapolis Center
09:28AM 39.6622 -84.8578 57° Northeast 143 165 4,300 -120 Level Indianapolis Center
09:29AM 39.6553 -84.9178 261° West 150 173 4,200 -120 Descending Indianapolis Center
09:29AM 39.6519 -84.9225 227° Southwest 148 170 4,200  Level Indianapolis Center
09:30AM 39.6500 -84.9656 267° West 150 173 4,200  Level Indianapolis Center
09:30AM 39.6492 -84.9750 263° West 149 171 4,200 -120 Level Indianapolis Center
09:31AM 39.6481 -85.0197 268° West 151 174 4,100 -120 Descending Indianapolis Center
09:31AM 39.6467 -85.0292 259° West 149 171 4,100 60 Level Indianapolis Center
09:32AM 39.6419 -85.0731 262° West 151 174 4,200 60 Climbing Indianapolis Center
09:32AM 39.6422 -85.0819 272° West 149 171 4,200  Level Indianapolis Center
09:34AM 39.6358 -85.1342 261° West 148 170 4,200  Level Indianapolis Center
09:35AM 39.6319 -85.1867 265° West 147 169 4,200 -60 Level Indianapolis Center
09:36AM 39.6211 -85.2472 257° West 145 167 4,100  Descending Indianapolis Center
09:37AM 39.6122 -85.2992 257° West 146 168 4,200  Climbing Indianapolis Center
09:38AM 39.6058 -85.3492 261° West 145 167 4,200  Level Indianapolis Center
09:39AM 39.5981 -85.3983 258° West 142 163 4,200  Level Indianapolis Center
09:40AM 39.5850 -85.4464 251° West 141 162 4,200  Level Indianapolis Center
09:41AM 39.5711 -85.4953 250° West 142 163 4,300  Climbing Indianapolis Center
09:42AM 39.5553 -85.5544 251° West 143 165 4,200 -120 Descending Indianapolis Center
09:43AM 39.5453 -85.6053 256° West 145 167 4,100  Descending Indianapolis Center
09:44AM 39.5356 -85.6550 256° West 145 167 4,200  Climbing Indianapolis Center
09:45AM 39.5247 -85.7044 254° West 144 166 4,200  Level Indianapolis Center
09:46AM 39.5128 -85.7517 252° West 141 162 4,200 -60 Level Indianapolis Center
09:47AM 39.4992 -85.8111 253° West 142 163 4,100 -60 Descending Indianapolis Center
09:48AM 39.4839 -85.8575 247° West 141 162 4,100  Level Indianapolis Center
09:49AM 39.4717 -85.9050 252° West 140 161 4,200  Climbing Indianapolis Center
09:50AM 39.4592 -85.9528 251° West 140 161 4,200 -60 Level Indianapolis Center
09:51AM 39.4481 -86.0019 254° West 141 162 4,100 -60 Descending Indianapolis Center
09:52AM 39.4358 -86.0494 252° West 141 162 4,100  Level Indianapolis Center
09:53AM 39.4239 -86.0981 252° West 141 162 4,100  Level Indianapolis Center
09:54AM 39.4092 -86.1564 252° West 142 163 4,100 60 Level Indianapolis Center
09:56AM 39.3833 -86.2500 250° West 135 155 4,300  Climbing Indianapolis TRACON
09:57AM 39.3806 -86.2989 266° West 138 159 4,200 -120 Descending Indianapolis Center
09:58AM 39.3731 -86.3500 259° West 143 165 4,100 -60 Descending Indianapolis Center
09:59AM 39.3631 -86.3989 255° West 142 163 4,100  Level Indianapolis Center
10:00AM 39.3489 -86.4561 252° West 141 162 4,100  Level Indianapolis Center
10:01AM 39.3303 -86.4994 241° Southwest 140 161 4,100  Level Indianapolis Center
10:02AM 39.3189 -86.5472 253° West 139 160 4,100  Level Indianapolis Center
10:04AM 39.3108 -86.5961 258° West 139 160 4,100  Level Indianapolis Center
10:05AM 39.3047 -86.6442 261° West 137 158 4,200  Climbing Indianapolis Center
10:06AM 39.2928 -86.6922 252° West 140 161 4,200 -60 Level Indianapolis Center
10:07AM 39.2775 -86.7486 251° West 138 159 4,100  Descending Indianapolis Center
10:08AM 39.2644 -86.7950 250° West 139 160 4,200 -60 Climbing Indianapolis Center
10:09AM 39.2511 -86.8431 250° West 140 161 4,000 -180 Descending Indianapolis Center
10:10AM 39.2403 -86.8925 254° West 142 163 3,900 -300 Descending Indianapolis Center
10:11AM 39.2278 -86.9442 253° West 147 169 3,400 -420 Descending Indianapolis Center
10:12AM 39.2167 -87.0114 258° West 157 181 3,100 -360 Descending Indianapolis Center
10:13AM 39.2033 -87.0639 252° West 157 181 2,700 -480 Descending Indianapolis Center
10:14AM 39.1933 -87.1256 258° West 162 186 2,200 -540 Descending Indianapolis Center